Time;durP1;ratioP1;P1;durP2;ratioP2;P2;SDS_P1;SDS_P2;PMS_P1;PMS_P2;Temp;Humidity;BMP_temperature;BMP_pressure;BME280_temperature;BME280_humidity;BME280_pressure;Samples;Min_cycle;Max_cycle;Signal;HPM_P1;HPM_P2
2023/08/23 00:01:11;;;;;;;7.00;4.82;;;15.70;99.90;;;;;;5019612;28;20115;-82
2023/08/23 00:03:37;;;;;;;6.28;4.80;;;15.70;99.90;;;;;;5024109;28;20504;-82
2023/08/23 00:06:02;;;;;;;8.38;4.78;;;15.70;99.90;;;;;;4999326;28;20045;-83
2023/08/23 00:08:28;;;;;;;5.50;5.00;;;15.70;99.90;;;;;;5029377;28;20051;-83
2023/08/23 00:10:54;;;;;;;9.57;5.05;;;15.80;99.90;;;;;;5016840;28;20708;-83
2023/08/23 00:13:21;;;;;;;6.68;4.57;;;15.80;99.90;;;;;;5049499;28;20093;-82
2023/08/23 00:15:47;;;;;;;6.43;4.57;;;15.80;99.90;;;;;;5054391;28;20055;-82
2023/08/23 00:18:12;;;;;;;6.20;4.85;;;15.80;99.90;;;;;;5016080;28;20056;-82
2023/08/23 00:20:38;;;;;;;12.55;5.15;;;15.90;99.90;;;;;;5017642;28;20043;-82
2023/08/23 00:23:04;;;;;;;9.30;5.47;;;15.80;99.90;;;;;;5023527;28;20041;-83
2023/08/23 00:25:30;;;;;;;5.63;4.95;;;15.90;99.90;;;;;;5049226;28;20043;-83
2023/08/23 00:27:55;;;;;;;10.23;5.38;;;15.90;99.90;;;;;;5015077;28;20033;-83
2023/08/23 00:30:21;;;;;;;54.28;7.05;;;15.80;99.90;;;;;;5018516;28;20044;-83
2023/08/23 00:32:47;;;;;;;9.55;4.82;;;15.80;99.90;;;;;;5012181;28;20033;-83
2023/08/23 00:35:13;;;;;;;6.50;4.60;;;15.70;99.90;;;;;;5018448;28;20037;-82
2023/08/23 00:37:38;;;;;;;27.27;6.32;;;15.70;99.90;;;;;;5021133;28;20056;-83
2023/08/23 00:40:11;;;;;;;5.30;4.80;;;15.70;99.90;;;;;;5017219;28;20041;-83
2023/08/23 00:42:37;;;;;;;5.97;4.68;;;15.70;99.90;;;;;;5019110;28;20372;-82
2023/08/23 00:45:04;;;;;;;8.27;4.57;;;15.80;99.90;;;;;;5038323;28;20032;-83
2023/08/23 00:47:30;;;;;;;10.13;4.57;;;15.70;99.90;;;;;;5055031;28;20813;-83
2023/08/23 00:49:57;;;;;;;9.82;4.13;;;15.70;99.90;;;;;;5045293;28;20040;-82
2023/08/23 00:52:23;;;;;;;7.47;4.25;;;15.60;99.90;;;;;;5049369;28;20040;-82
2023/08/23 00:54:49;;;;;;;6.22;4.70;;;15.60;99.90;;;;;;5045237;28;20037;-82
2023/08/23 00:57:15;;;;;;;14.80;4.95;;;15.60;99.90;;;;;;5037899;28;20218;-81
2023/08/23 00:59:41;;;;;;;37.35;5.97;;;15.60;99.90;;;;;;5036487;28;20037;-82
2023/08/23 01:02:08;;;;;;;18.17;5.60;;;15.50;99.90;;;;;;5054947;28;20072;-82
2023/08/23 01:04:34;;;;;;;5.57;4.90;;;15.50;99.90;;;;;;5023823;28;20037;-82
2023/08/23 01:07:23;;;;;;;8.63;4.47;;;15.50;99.90;;;;;;5004043;28;20173;-82
2023/08/23 01:10:03;;;;;;;4.75;3.90;;;15.50;99.90;;;;;;5049975;28;20466;-82
2023/08/23 01:12:55;;;;;;;5.25;4.20;;;15.50;99.90;;;;;;5052849;28;20036;-82
2023/08/23 01:15:23;;;;;;;10.45;5.00;;;15.40;99.90;;;;;;4999232;28;20451;-81
2023/08/23 01:17:50;;;;;;;5.28;4.78;;;15.30;99.90;;;;;;5052324;28;20083;-82
2023/08/23 01:20:17;;;;;;;5.80;5.18;;;15.30;99.90;;;;;;5036136;28;20037;-82
2023/08/23 01:22:57;;;;;;;6.03;4.55;;;15.30;99.90;;;;;;5019392;28;20037;-82
2023/08/23 01:25:24;;;;;;;6.90;4.22;;;15.40;99.90;;;;;;5055039;28;20048;-83
2023/08/23 01:27:49;;;;;;;5.95;4.60;;;15.30;99.90;;;;;;5023454;28;20045;-83
2023/08/23 01:30:18;;;;;;;4.63;3.90;;;15.30;99.90;;;;;;5033978;28;20094;-84
2023/08/23 01:32:51;;;;;;;3.53;3.22;;;15.20;99.90;;;;;;5036573;28;20441;-83
2023/08/23 01:35:26;;;;;;;5.00;4.10;;;15.20;99.90;;;;;;5052218;28;20079;-83
2023/08/23 01:37:53;;;;;;;4.38;3.97;;;15.20;99.90;;;;;;5063526;28;20032;-83
2023/08/23 01:40:19;;;;;;;8.27;4.07;;;15.10;99.90;;;;;;5025847;28;20033;-83
2023/08/23 01:42:47;;;;;;;4.80;4.30;;;15.00;99.90;;;;;;5022509;28;20070;-82
2023/08/23 01:45:13;;;;;;;5.43;4.38;;;15.00;99.90;;;;;;5022069;28;20036;-82
2023/08/23 01:47:38;;;;;;;4.95;4.10;;;15.00;99.90;;;;;;5034546;28;20036;-83
2023/08/23 01:50:05;;;;;;;3.50;3.25;;;15.00;99.90;;;;;;5019044;28;20068;-83
2023/08/23 01:52:30;;;;;;;6.40;4.03;;;15.00;99.90;;;;;;5018577;28;20135;-82
2023/08/23 01:54:57;;;;;;;12.93;4.72;;;15.00;99.90;;;;;;5036301;28;20154;-82
2023/08/23 01:57:22;;;;;;;7.68;4.10;;;15.00;99.90;;;;;;5034186;28;20037;-83
2023/08/23 01:59:49;;;;;;;12.95;4.18;;;15.00;99.90;;;;;;5017835;28;20044;-83
2023/08/23 02:02:16;;;;;;;39.28;5.38;;;14.90;99.90;;;;;;5029188;28;20033;-83
2023/08/23 02:04:41;;;;;;;26.60;5.18;;;15.00;99.90;;;;;;5025617;28;20049;-82
2023/08/23 02:07:07;;;;;;;47.97;6.05;;;15.00;99.90;;;;;;5042707;28;20058;-81
2023/08/23 02:09:33;;;;;;;33.50;6.18;;;15.00;99.90;;;;;;5016144;28;20037;-82
2023/08/23 02:11:59;;;;;;;50.30;6.97;;;14.90;99.90;;;;;;5042576;28;20045;-83
2023/08/23 02:14:25;;;;;;;12.23;5.43;;;14.90;99.90;;;;;;5047381;28;20051;-83
2023/08/23 02:16:51;;;;;;;6.35;4.78;;;14.90;99.90;;;;;;5024473;28;20151;-83
2023/08/23 02:19:16;;;;;;;7.13;4.35;;;14.80;99.90;;;;;;5018353;28;20488;-83
2023/08/23 02:21:42;;;;;;;4.30;3.90;;;14.80;99.90;;;;;;5012331;28;20037;-82
2023/08/23 02:24:08;;;;;;;4.25;3.75;;;14.80;99.90;;;;;;5035044;28;20069;-82
2023/08/23 02:26:37;;;;;;;4.63;4.03;;;14.80;99.90;;;;;;5004424;28;20459;-83
2023/08/23 02:29:03;;;;;;;4.15;3.72;;;14.80;99.90;;;;;;5051048;28;20045;-83
2023/08/23 02:31:30;;;;;;;11.75;3.85;;;14.90;99.90;;;;;;5035131;28;20044;-83
2023/08/23 02:33:55;;;;;;;6.53;3.83;;;14.80;99.90;;;;;;5018040;28;20083;-83
2023/08/23 02:36:21;;;;;;;7.53;4.70;;;14.80;99.90;;;;;;5017830;28;20076;-83
2023/08/23 02:38:47;;;;;;;48.25;7.03;;;14.80;99.90;;;;;;5034286;28;20037;-83
2023/08/23 02:41:12;;;;;;;35.40;7.25;;;14.80;99.90;;;;;;5034056;28;20033;-83
2023/08/23 02:43:38;;;;;;;37.40;7.20;;;14.80;99.90;;;;;;5034287;28;20044;-83
2023/08/23 02:46:04;;;;;;;31.42;7.50;;;14.70;99.90;;;;;;5050763;28;20068;-83
2023/08/23 02:48:30;;;;;;;96.57;9.60;;;14.80;99.90;;;;;;5039296;28;20041;-82
2023/08/23 02:50:56;;;;;;;95.68;10.57;;;14.80;99.90;;;;;;5051164;28;20096;-83
2023/08/23 02:53:22;;;;;;;36.25;8.18;;;14.70;99.90;;;;;;5051227;28;20052;-83
2023/08/23 02:55:48;;;;;;;104.95;11.05;;;14.70;99.90;;;;;;5034405;28;20044;-83
2023/08/23 02:58:13;;;;;;;113.65;13.77;;;14.80;99.90;;;;;;5039665;28;20041;-83
2023/08/23 03:00:39;;;;;;;34.05;8.48;;;14.80;99.90;;;;;;5050763;28;20045;-83
2023/08/23 03:03:05;;;;;;;67.38;10.30;;;14.80;99.90;;;;;;5024861;28;20541;-83
2023/08/23 03:05:31;;;;;;;39.95;9.30;;;14.80;99.90;;;;;;5038458;28;20045;-83
2023/08/23 03:07:57;;;;;;;30.88;8.15;;;14.90;99.90;;;;;;5052104;28;20048;-83
2023/08/23 03:10:22;;;;;;;36.65;8.45;;;14.80;99.90;;;;;;5050493;28;20091;-83
2023/08/23 03:12:48;;;;;;;25.05;7.82;;;14.80;99.90;;;;;;5032492;28;20863;-83
2023/08/23 03:15:14;;;;;;;12.35;6.75;;;14.80;99.90;;;;;;5033083;28;20129;-83
2023/08/23 03:17:40;;;;;;;48.97;8.77;;;14.80;99.90;;;;;;5041944;28;20476;-83
2023/08/23 03:20:06;;;;;;;16.85;7.57;;;14.90;99.90;;;;;;5050376;28;20044;-82
2023/08/23 03:22:32;;;;;;;18.48;7.35;;;14.90;99.90;;;;;;5030785;28;20045;-82
2023/08/23 03:24:58;;;;;;;32.05;8.05;;;14.90;99.90;;;;;;5033326;28;20397;-83
2023/08/23 03:27:24;;;;;;;72.53;10.02;;;14.80;99.90;;;;;;5016514;28;20457;-83
2023/08/23 03:29:50;;;;;;;10.55;6.72;;;14.80;99.90;;;;;;5050371;28;20105;-82
2023/08/23 03:32:17;;;;;;;17.55;7.78;;;14.80;99.90;;;;;;5050742;28;20083;-82
2023/08/23 03:34:43;;;;;;;15.48;7.03;;;14.90;99.90;;;;;;5051649;28;20037;-83
2023/08/23 03:37:09;;;;;;;31.15;8.90;;;14.90;99.90;;;;;;5062975;28;20416;-83
2023/08/23 03:39:34;;;;;;;32.88;8.77;;;15.00;99.90;;;;;;5015767;28;20056;-83
2023/08/23 03:42:00;;;;;;;53.35;9.77;;;15.00;99.90;;;;;;5050200;28;20029;-83
2023/08/23 03:44:26;;;;;;;46.42;10.73;;;15.00;99.90;;;;;;5017375;28;20483;-84
2023/08/23 03:46:51;;;;;;;48.15;11.05;;;15.00;99.90;;;;;;5017503;28;20051;-83
2023/08/23 03:49:17;;;;;;;10.27;8.52;;;15.00;99.90;;;;;;5007124;28;20044;-83
2023/08/23 03:51:43;;;;;;;16.88;9.57;;;15.00;99.90;;;;;;5017509;28;20820;-83
2023/08/23 03:54:08;;;;;;;21.90;9.90;;;15.00;99.90;;;;;;5043487;28;20041;-83
2023/08/23 03:56:34;;;;;;;14.85;9.60;;;15.00;99.90;;;;;;5046252;28;20053;-84
2023/08/23 03:59:00;;;;;;;12.27;9.65;;;15.00;99.90;;;;;;5033610;28;20037;-84
2023/08/23 04:01:26;;;;;;;11.30;9.20;;;15.00;99.90;;;;;;5040890;28;20036;-84
2023/08/23 04:03:51;;;;;;;19.25;10.55;;;15.10;99.90;;;;;;5034881;28;20037;-83
2023/08/23 04:06:17;;;;;;;19.30;10.23;;;15.10;99.90;;;;;;5034620;28;20124;-84
2023/08/23 04:08:43;;;;;;;11.48;10.27;;;15.10;99.90;;;;;;5033706;28;20871;-83
2023/08/23 04:11:08;;;;;;;18.50;10.25;;;15.10;99.90;;;;;;5037000;28;20120;-83
2023/08/23 04:13:34;;;;;;;13.05;11.35;;;15.10;99.90;;;;;;5044387;28;20084;-83
2023/08/23 04:16:00;;;;;;;27.95;12.75;;;15.10;99.90;;;;;;5054650;28;20476;-83
2023/08/23 04:18:26;;;;;;;86.75;15.02;;;15.10;99.90;;;;;;5051407;28;20053;-83
2023/08/23 04:21:01;;;;;;;27.80;12.85;;;15.10;99.90;;;;;;5049818;28;20455;-83
2023/08/23 04:23:27;;;;;;;28.80;14.25;;;15.20;99.90;;;;;;5038929;28;20049;-83
2023/08/23 04:25:53;;;;;;;80.03;15.73;;;15.10;99.90;;;;;;5053322;28;20037;-83
2023/08/23 04:28:19;;;;;;;51.97;15.40;;;15.10;99.90;;;;;;5053828;28;20047;-83
2023/08/23 04:30:44;;;;;;;42.80;14.88;;;15.10;99.90;;;;;;5053722;28;20049;-83
2023/08/23 04:33:11;;;;;;;54.95;15.60;;;15.10;99.90;;;;;;5055390;28;20052;-82
2023/08/23 04:35:37;;;;;;;81.68;16.27;;;15.10;99.90;;;;;;5069993;28;20120;-83
2023/08/23 04:38:03;;;;;;;111.78;18.40;;;15.10;99.90;;;;;;5020620;28;20055;-84
2023/08/23 04:40:29;;;;;;;36.63;14.80;;;15.20;99.90;;;;;;5032571;28;20091;-83
2023/08/23 04:42:54;;;;;;;116.80;17.88;;;15.20;99.90;;;;;;5016842;28;20069;-83
2023/08/23 04:45:20;;;;;;;34.90;14.38;;;15.20;99.90;;;;;;5049932;28;20116;-84
2023/08/23 04:47:46;;;;;;;23.15;14.93;;;15.20;99.90;;;;;;5047882;28;20391;-84
2023/08/23 04:50:12;;;;;;;32.80;15.95;;;15.20;99.90;;;;;;5069684;28;20037;-84
2023/08/23 04:52:37;;;;;;;57.88;16.67;;;15.30;99.90;;;;;;5034038;28;20033;-85
2023/08/23 04:55:04;;;;;;;29.35;16.05;;;15.30;99.90;;;;;;5018008;28;20040;-84
2023/08/23 04:57:30;;;;;;;32.38;17.17;;;15.30;99.90;;;;;;5022323;28;20045;-84
2023/08/23 04:59:56;;;;;;;67.80;20.58;;;15.30;99.90;;;;;;5036860;28;20040;-84
2023/08/23 05:02:22;;;;;;;99.82;20.35;;;15.30;99.90;;;;;;5042993;28;20037;-84
2023/08/23 05:04:48;;;;;;;128.73;21.02;;;15.40;99.90;;;;;;5056606;28;20182;-84
2023/08/23 05:07:13;;;;;;;78.28;19.40;;;15.40;99.90;;;;;;5051017;28;20101;-84
2023/08/23 05:09:39;;;;;;;40.30;17.73;;;15.40;99.90;;;;;;5036539;28;20048;-84
2023/08/23 05:12:05;;;;;;;53.75;19.10;;;15.40;99.90;;;;;;5029986;28;20049;-84
2023/08/23 05:14:31;;;;;;;36.22;18.48;;;15.40;99.90;;;;;;5030953;28;20040;-85
2023/08/23 05:16:56;;;;;;;67.28;19.13;;;15.40;99.90;;;;;;5051251;28;20047;-84
2023/08/23 05:19:22;;;;;;;75.80;20.17;;;15.40;99.90;;;;;;5047706;28;20052;-85
2023/08/23 05:21:49;;;;;;;77.60;19.23;;;15.40;99.90;;;;;;5008611;28;20045;-85
2023/08/23 05:24:15;;;;;;;46.33;18.42;;;15.40;99.90;;;;;;5054767;28;20507;-83
2023/08/23 05:26:41;;;;;;;28.67;17.00;;;15.40;99.90;;;;;;5023164;28;20043;-83
2023/08/23 05:29:07;;;;;;;52.42;17.70;;;15.50;99.90;;;;;;5059473;28;20040;-84
2023/08/23 05:31:32;;;;;;;27.30;17.17;;;15.50;99.90;;;;;;5053034;28;20459;-84
2023/08/23 05:33:58;;;;;;;70.00;19.35;;;15.50;99.90;;;;;;5007989;28;20041;-84
2023/08/23 05:36:24;;;;;;;24.65;17.08;;;15.60;99.90;;;;;;5040786;28;20049;-83
2023/08/23 05:38:50;;;;;;;19.35;16.85;;;15.50;99.90;;;;;;5035904;28;20037;-83
2023/08/23 05:41:16;;;;;;;44.80;18.10;;;15.60;99.90;;;;;;5052777;28;20044;-84
2023/08/23 05:43:42;;;;;;;25.65;16.95;;;15.60;99.90;;;;;;5045382;28;20037;-84
2023/08/23 05:46:08;;;;;;;27.63;17.65;;;15.60;99.90;;;;;;5052687;28;20037;-85
2023/08/23 05:48:35;;;;;;;30.83;17.85;;;15.60;99.90;;;;;;5059577;28;20102;-85
2023/08/23 05:51:04;;;;;;;55.20;19.20;;;15.60;99.90;;;;;;5038547;28;20050;-85
2023/08/23 05:53:30;;;;;;;24.25;17.13;;;15.60;99.90;;;;;;5056280;28;20045;-84
2023/08/23 05:55:56;;;;;;;24.98;18.73;;;15.60;99.90;;;;;;5047914;28;20663;-85
2023/08/23 05:58:22;;;;;;;30.10;18.92;;;15.70;99.90;;;;;;5034467;28;20048;-84
2023/08/23 06:00:48;;;;;;;23.30;17.55;;;15.70;99.90;;;;;;5043399;28;20064;-85
2023/08/23 06:03:15;;;;;;;24.73;18.58;;;15.70;99.90;;;;;;5025725;28;20040;-85
2023/08/23 06:05:41;;;;;;;22.42;18.33;;;15.70;99.90;;;;;;5041673;28;20183;-85
2023/08/23 06:08:10;;;;;;;36.25;19.65;;;15.70;99.90;;;;;;5041821;28;20123;-86
2023/08/23 06:10:36;;;;;;;26.30;18.80;;;15.70;99.90;;;;;;5043633;28;20040;-85
2023/08/23 06:13:03;;;;;;;25.08;18.88;;;15.60;99.90;;;;;;5037383;28;20045;-84
2023/08/23 06:15:28;;;;;;;33.53;18.98;;;15.60;99.90;;;;;;5055993;28;20094;-84
2023/08/23 06:17:55;;;;;;;28.45;20.45;;;15.60;99.90;;;;;;5031457;28;20033;-84
2023/08/23 06:20:21;;;;;;;40.42;22.27;;;15.70;99.90;;;;;;5035453;28;20132;-84
2023/08/23 06:22:47;;;;;;;42.80;20.88;;;15.70;99.90;;;;;;5035644;28;20385;-83
2023/08/23 06:25:12;;;;;;;26.67;19.38;;;15.70;99.90;;;;;;5052032;28;20044;-84
2023/08/23 06:27:38;;;;;;;34.15;20.48;;;15.90;99.90;;;;;;5035282;28;20049;-85
2023/08/23 06:30:05;;;;;;;63.38;24.60;;;15.90;99.90;;;;;;5064522;28;20560;-84
2023/08/23 06:32:31;;;;;;;97.25;25.92;;;16.00;99.90;;;;;;5034487;28;20511;-85
2023/08/23 06:34:57;;;;;;;65.05;25.40;;;16.00;99.90;;;;;;5031667;28;20045;-85
2023/08/23 06:37:23;;;;;;;58.30;25.02;;;16.10;99.90;;;;;;5043452;28;20408;-83
2023/08/23 06:39:52;;;;;;;64.57;25.60;;;16.10;99.90;;;;;;5035165;28;20037;-84
2023/08/23 06:42:17;;;;;;;39.15;24.27;;;16.20;99.90;;;;;;5050040;28;20653;-84
2023/08/23 06:44:44;;;;;;;39.45;25.75;;;16.30;99.90;;;;;;5038563;28;20040;-84
2023/08/23 06:47:09;;;;;;;37.83;24.73;;;16.40;99.90;;;;;;5019938;28;20147;-84
2023/08/23 06:49:35;;;;;;;35.97;24.73;;;16.50;99.90;;;;;;5018615;28;20049;-84
2023/08/23 06:52:01;;;;;;;31.63;22.75;;;16.60;99.90;;;;;;5018812;28;20471;-84
2023/08/23 06:54:27;;;;;;;34.17;24.77;;;16.70;99.90;;;;;;5049033;28;20036;-84
2023/08/23 06:56:53;;;;;;;33.05;23.20;;;16.80;99.90;;;;;;5033386;28;20400;-86
2023/08/23 06:59:19;;;;;;;33.92;24.73;;;17.00;99.90;;;;;;5018828;28;20112;-86
2023/08/23 07:01:45;;;;;;;29.48;22.42;;;17.10;99.90;;;;;;5059713;28;20071;-85
2023/08/23 07:04:11;;;;;;;31.10;22.98;;;17.20;99.90;;;;;;5052627;28;20030;-84
2023/08/23 07:06:37;;;;;;;28.73;22.85;;;17.30;99.90;;;;;;5059937;28;20511;-85
2023/08/23 07:09:03;;;;;;;29.08;21.83;;;17.40;99.90;;;;;;5043098;28;20036;-85
2023/08/23 07:11:29;;;;;;;27.60;22.27;;;17.40;99.90;;;;;;5040444;28;20047;-84
2023/08/23 07:13:55;;;;;;;30.02;22.65;;;17.50;99.90;;;;;;5054483;28;20480;-84
2023/08/23 07:16:20;;;;;;;33.17;24.48;;;17.60;99.90;;;;;;5043526;28;20033;-84
2023/08/23 07:18:46;;;;;;;32.22;21.63;;;17.70;99.90;;;;;;5042351;28;20060;-84
2023/08/23 07:21:12;;;;;;;30.92;22.38;;;17.90;99.90;;;;;;5043058;28;20404;-83
2023/08/23 07:23:38;;;;;;;33.72;23.05;;;18.00;99.90;;;;;;5032867;28;20112;-83
2023/08/23 07:26:04;;;;;;;29.58;21.42;;;18.10;99.90;;;;;;5057965;28;20060;-84
2023/08/23 07:28:30;;;;;;;27.67;20.90;;;18.20;99.90;;;;;;5034487;28;20086;-83
2023/08/23 07:30:58;;;;;;;26.75;19.27;;;18.40;99.90;;;;;;5060280;28;20037;-84
2023/08/23 07:33:25;;;;;;;23.35;18.33;;;18.60;99.90;;;;;;5044002;28;20175;-83
2023/08/23 07:35:59;;;;;;;20.58;17.27;;;18.70;99.90;;;;;;5033781;28;20045;-83
2023/08/23 07:38:25;;;;;;;23.73;17.70;;;18.90;99.90;;;;;;5050743;28;20036;-82
2023/08/23 07:40:57;;;;;;;19.40;16.83;;;18.90;99.90;;;;;;5017743;28;20040;-83
2023/08/23 07:43:23;;;;;;;;;;;18.90;99.90;;;;;;5019293;28;20042;-84
2023/08/23 07:45:57;;;;;;;19.98;16.42;;;19.00;99.90;;;;;;5059046;28;20003;-84
2023/08/23 07:48:28;;;;;;;19.77;16.23;;;19.10;99.90;;;;;;5052563;28;20040;-84
2023/08/23 07:50:56;;;;;;;18.50;14.98;;;19.20;99.90;;;;;;5066774;28;20748;-83
2023/08/23 07:53:23;;;;;;;19.70;15.00;;;19.30;99.90;;;;;;5066219;28;20048;-83
2023/08/23 07:55:49;;;;;;;18.63;14.25;;;19.40;99.90;;;;;;5019494;28;20068;-83
2023/08/23 07:58:16;;;;;;;15.57;12.20;;;19.50;99.90;;;;;;5050678;28;20041;-83
2023/08/23 08:00:41;;;;;;;14.35;12.77;;;19.50;99.90;;;;;;5051643;28;20036;-85
2023/08/23 08:03:09;;;;;;;13.82;10.57;;;19.70;99.90;;;;;;5047353;28;20047;-85
2023/08/23 08:05:35;;;;;;;13.30;10.90;;;19.80;99.90;;;;;;5039616;28;20045;-83
2023/08/23 08:08:02;;;;;;;13.48;10.43;;;19.80;99.90;;;;;;5069996;28;20048;-83
2023/08/23 08:10:28;;;;;;;12.48;10.25;;;19.90;99.90;;;;;;5037448;28;20087;-83
2023/08/23 08:12:54;;;;;;;12.63;10.98;;;19.90;99.90;;;;;;5050668;28;20029;-82
2023/08/23 08:15:20;;;;;;;14.07;10.38;;;19.90;99.90;;;;;;5050127;28;20117;-84
2023/08/23 08:17:49;;;;;;;11.05;7.90;;;19.90;99.90;;;;;;5050915;28;20060;-84
2023/08/23 08:20:15;;;;;;;11.43;8.88;;;20.00;99.90;;;;;;5033925;28;20061;-84
2023/08/23 08:22:41;;;;;;;12.68;8.77;;;20.20;99.90;;;;;;5005066;28;20506;-84
2023/08/23 08:25:07;;;;;;;10.63;9.00;;;20.30;99.90;;;;;;5048174;28;20041;-83
2023/08/23 08:27:33;;;;;;;11.90;9.50;;;20.40;99.90;;;;;;5017544;28;20045;-84
2023/08/23 08:29:59;;;;;;;12.70;8.95;;;20.50;99.90;;;;;;5033811;28;20128;-84
2023/08/23 08:32:25;;;;;;;10.18;8.68;;;20.60;99.90;;;;;;5061747;28;20548;-84
2023/08/23 08:34:51;;;;;;;11.00;8.40;;;20.80;99.90;;;;;;5044318;28;20485;-84
2023/08/23 08:37:18;;;;;;;13.25;9.20;;;20.90;99.90;;;;;;5049945;28;20037;-84
2023/08/23 08:39:44;;;;;;;6.82;6.18;;;21.00;99.90;;;;;;5013931;28;20045;-83
2023/08/23 08:42:10;;;;;;;6.65;5.57;;;21.00;99.90;;;;;;5032425;28;20066;-84
2023/08/23 08:44:36;;;;;;;7.45;5.75;;;21.10;99.90;;;;;;5064258;28;20056;-84
2023/08/23 08:47:02;;;;;;;9.52;7.00;;;21.20;99.90;;;;;;5033553;28;20045;-83
2023/08/23 08:49:28;;;;;;;8.60;6.65;;;21.30;99.90;;;;;;5017156;28;20041;-84
2023/08/23 08:51:59;;;;;;;5.88;5.28;;;21.30;99.90;;;;;;5033646;28;20053;-85
2023/08/23 08:54:26;;;;;;;7.77;6.50;;;21.40;99.90;;;;;;5033869;28;20519;-85
2023/08/23 08:56:53;;;;;;;7.78;6.03;;;21.50;99.90;;;;;;5019807;28;20395;-84
2023/08/23 08:59:19;;;;;;;7.80;6.05;;;21.60;99.90;;;;;;5021219;28;20374;-84
2023/08/23 09:01:46;;;;;;;7.38;5.38;;;21.70;99.90;;;;;;5037214;28;20469;-84
2023/08/23 09:04:12;;;;;;;5.63;4.05;;;21.90;99.90;;;;;;5037148;28;20044;-85
2023/08/23 09:06:40;;;;;;;6.90;5.38;;;22.00;99.90;;;;;;5053540;28;20047;-85
2023/08/23 09:09:07;;;;;;;6.90;4.68;;;22.10;99.90;;;;;;5053718;28;20102;-84
2023/08/23 09:11:36;;;;;;;4.32;3.17;;;22.20;99.90;;;;;;5053388;28;20053;-84
2023/08/23 09:14:13;;;;;;;4.95;3.40;;;22.30;99.90;;;;;;5053316;28;20059;-84
2023/08/23 09:16:39;;;;;;;6.25;3.38;;;22.50;99.90;;;;;;5036383;28;20049;-85
2023/08/23 09:19:07;;;;;;;4.55;2.80;;;22.50;99.90;;;;;;5038919;28;20047;-84
2023/08/23 09:21:34;;;;;;;4.80;3.50;;;22.50;99.90;;;;;;5052908;28;20080;-83
2023/08/23 09:24:00;;;;;;;4.15;2.60;;;22.50;99.90;;;;;;5053488;28;20076;-84
2023/08/23 09:26:25;;;;;;;6.68;2.78;;;22.60;99.90;;;;;;5019622;28;20128;-83
2023/08/23 09:28:51;;;;;;;4.15;2.80;;;22.70;99.90;;;;;;5052845;28;20161;-84
2023/08/23 09:31:17;;;;;;;2.78;2.58;;;22.80;99.90;;;;;;5010608;28;20047;-84
2023/08/23 09:33:45;;;;;;;4.35;2.33;;;22.90;99.90;;;;;;5048351;28;20796;-84
2023/08/23 09:36:12;;;;;;;3.65;2.70;;;22.90;99.90;;;;;;5063493;28;20033;-83
2023/08/23 09:38:39;;;;;;;4.72;2.70;;;23.00;99.90;;;;;;5073266;28;20103;-84
2023/08/23 09:41:06;;;;;;;3.97;2.38;;;23.00;99.90;;;;;;5064259;28;20048;-85
2023/08/23 09:43:33;;;;;;;3.50;2.42;;;23.00;99.90;;;;;;5053806;28;20170;-84
2023/08/23 09:46:03;;;;;;;3.88;2.38;;;23.10;99.90;;;;;;5056448;28;20041;-84
2023/08/23 09:48:33;;;;;;;2.63;2.42;;;23.10;99.90;;;;;;5040139;28;20045;-85
2023/08/23 09:51:01;;;;;;;3.15;2.00;;;23.10;99.90;;;;;;5068941;28;20094;-83
2023/08/23 09:53:31;;;;;;;2.63;2.38;;;23.20;99.90;;;;;;5057405;28;20041;-83
2023/08/23 09:55:58;;;;;;;4.45;2.65;;;23.40;99.90;;;;;;5036108;28;20045;-84
2023/08/23 09:58:25;;;;;;;4.10;3.00;;;23.40;99.90;;;;;;5035733;28;20053;-84
2023/08/23 10:00:51;;;;;;;4.82;2.75;;;23.60;99.90;;;;;;5052448;28;20044;-83
2023/08/23 10:03:19;;;;;;;4.78;2.70;;;23.60;99.90;;;;;;5044709;28;20047;-84
2023/08/23 10:05:46;;;;;;;3.53;2.30;;;23.60;99.90;;;;;;5054781;28;20146;-84
2023/08/23 10:08:13;;;;;;;4.55;2.50;;;23.70;99.90;;;;;;5051441;28;20052;-83
2023/08/23 10:10:42;;;;;;;4.43;2.40;;;23.70;99.90;;;;;;5048029;28;20886;-84
2023/08/23 10:13:08;;;;;;;3.70;2.70;;;23.90;99.90;;;;;;5059234;28;20377;-84
2023/08/23 10:15:39;;;;;;;4.80;2.58;;;24.00;99.90;;;;;;5035730;28;20119;-83
2023/08/23 10:18:09;;;;;;;3.33;2.40;;;24.10;99.90;;;;;;5035736;28;20073;-83
2023/08/23 10:20:36;;;;;;;3.92;2.67;;;24.00;99.90;;;;;;5035783;28;20076;-83
2023/08/23 10:23:13;;;;;;;2.78;2.35;;;23.90;99.90;;;;;;5035721;28;20045;-83
2023/08/23 10:25:43;;;;;;;4.50;2.20;;;23.80;99.90;;;;;;5052450;28;20374;-83
2023/08/23 10:28:16;;;;;;;4.63;2.15;;;23.90;99.90;;;;;;5036310;28;20477;-84
2023/08/23 10:30:48;;;;;;;4.35;2.10;;;23.80;99.90;;;;;;5056570;28;20041;-82
2023/08/23 10:33:15;;;;;;;3.97;2.67;;;23.90;99.90;;;;;;5057451;28;20040;-82
2023/08/23 10:35:46;;;;;;;3.35;2.47;;;24.00;99.90;;;;;;5052038;28;20191;-84
2023/08/23 10:38:12;;;;;;;3.15;1.88;;;23.90;99.90;;;;;;5034593;28;20072;-83
2023/08/23 10:40:39;;;;;;;4.53;2.22;;;24.10;99.90;;;;;;5051571;28;20055;-84
2023/08/23 10:43:19;;;;;;;4.78;3.00;;;24.10;99.90;;;;;;5035298;28;20041;-84
2023/08/23 10:46:08;;;;;;;5.53;2.55;;;24.20;99.90;;;;;;5033816;28;20044;-83
2023/08/23 10:48:34;;;;;;;6.30;3.03;;;24.40;99.90;;;;;;5033691;28;20072;-83
2023/08/23 10:51:02;;;;;;;5.68;2.80;;;24.50;99.90;;;;;;5050175;28;20802;-84
2023/08/23 10:53:28;;;;;;;4.00;2.75;;;24.70;99.90;;;;;;5034337;28;20044;-82
2023/08/23 10:55:54;;;;;;;3.38;2.88;;;24.80;99.90;;;;;;5034647;28;20118;-83
2023/08/23 10:58:19;;;;;;;5.65;3.05;;;24.80;99.90;;;;;;5018082;28;20045;-82
2023/08/23 11:00:50;;;;;;;4.32;2.83;;;24.60;99.90;;;;;;5034342;28;20047;-82
2023/08/23 11:03:17;;;;;;;4.10;3.20;;;24.50;99.90;;;;;;5035013;28;20040;-82
2023/08/23 11:05:46;;;;;;;6.63;4.03;;;24.40;99.90;;;;;;5060016;28;20052;-81
2023/08/23 11:08:12;;;;;;;4.78;3.00;;;24.50;99.90;;;;;;5034661;28;20052;-82
2023/08/23 11:10:38;;;;;;;8.00;3.65;;;24.40;99.90;;;;;;5067564;28;20124;-82
2023/08/23 11:13:05;;;;;;;5.45;3.40;;;24.50;99.90;;;;;;5017567;28;20481;-83
2023/08/23 11:15:31;;;;;;;5.65;3.75;;;24.70;99.90;;;;;;5053069;28;20591;-82
2023/08/23 11:17:57;;;;;;;4.50;3.22;;;24.80;99.90;;;;;;5036392;28;20072;-82
2023/08/23 11:20:24;;;;;;;4.90;3.70;;;24.90;99.90;;;;;;5042487;28;20475;-82
2023/08/23 11:22:50;;;;;;;4.03;3.22;;;25.00;99.90;;;;;;5019161;28;20428;-82
2023/08/23 11:25:15;;;;;;;5.43;3.88;;;25.00;99.90;;;;;;5034279;28;20065;-82
2023/08/23 11:27:41;;;;;;;5.70;3.78;;;25.00;99.90;;;;;;5034179;28;20479;-82
2023/08/23 11:30:08;;;;;;;4.93;3.30;;;24.90;99.90;;;;;;5017343;28;20087;-82
2023/08/23 11:32:35;;;;;;;5.05;4.20;;;24.80;99.90;;;;;;5060673;28;20851;-83
2023/08/23 11:35:04;;;;;;;5.93;3.17;;;24.70;99.90;;;;;;5052923;28;20396;-82
2023/08/23 11:37:30;;;;;;;6.45;3.97;;;24.70;99.90;;;;;;5043206;28;20063;-82
2023/08/23 11:40:07;;;;;;;7.55;4.10;;;24.50;99.90;;;;;;5038135;28;20045;-82
2023/08/23 11:42:36;;;;;;;5.70;4.00;;;24.50;99.90;;;;;;5049579;28;20102;-83
2023/08/23 11:45:06;;;;;;;8.05;3.80;;;24.70;99.90;;;;;;5039319;28;20120;-83
2023/08/23 11:47:33;;;;;;;7.88;3.58;;;24.70;99.90;;;;;;5038783;28;20041;-81
2023/08/23 11:49:58;;;;;;;5.03;3.42;;;24.70;99.90;;;;;;5049395;28;20043;-80
2023/08/23 11:52:28;;;;;;;3.67;3.28;;;24.70;99.90;;;;;;5035825;28;20455;-81
2023/08/23 11:54:54;;;;;;;6.82;3.67;;;24.70;99.90;;;;;;5033334;28;20488;-82
2023/08/23 11:57:19;;;;;;;5.57;3.88;;;24.90;99.90;;;;;;5016875;28;20047;-83
2023/08/23 11:59:46;;;;;;;5.55;3.67;;;25.00;99.90;;;;;;5033906;28;20107;-82
2023/08/23 12:02:11;;;;;;;4.78;2.90;;;25.20;99.90;;;;;;5053951;28;20040;-82
2023/08/23 12:04:44;;;;;;;9.18;3.30;;;25.30;99.90;;;;;;5049820;28;20045;-82
2023/08/23 12:07:10;;;;;;;6.00;3.15;;;25.50;99.90;;;;;;5039085;28;20056;-82
2023/08/23 12:09:36;;;;;;;6.20;3.20;;;25.50;99.90;;;;;;5016697;28;20040;-82
2023/08/23 12:12:03;;;;;;;6.05;2.53;;;25.70;99.90;;;;;;5032582;28;20043;-81
2023/08/23 12:14:29;;;;;;;9.45;2.97;;;25.70;99.90;;;;;;5035573;28;20047;-81
2023/08/23 12:16:55;;;;;;;5.78;3.20;;;25.70;99.90;;;;;;5049455;28;20416;-82
2023/08/23 12:19:21;;;;;;;7.43;2.30;;;25.50;99.90;;;;;;5015645;28;20044;-81
2023/08/23 12:21:48;;;;;;;6.00;2.00;;;25.50;99.90;;;;;;5048975;28;20060;-81
2023/08/23 12:24:14;;;;;;;3.22;1.80;;;25.60;99.90;;;;;;5034049;28;20689;-82
2023/08/23 12:26:39;;;;;;;2.70;2.00;;;25.70;99.90;;;;;;5050205;28;20044;-82
2023/08/23 12:29:05;;;;;;;3.53;2.92;;;25.70;99.90;;;;;;5033554;28;20052;-83
2023/08/23 12:31:31;;;;;;;3.22;2.47;;;25.50;99.90;;;;;;5035993;28;20055;-81
2023/08/23 12:33:57;;;;;;;4.00;2.58;;;25.60;99.90;;;;;;5054384;28;20053;-83
2023/08/23 12:36:24;;;;;;;3.15;2.25;;;25.50;99.90;;;;;;5053736;28;20404;-83